KAJG

Mount Carmel Municipal Airport

Mount Carmel, Illinois, USA
METAR KAJG 151235Z AUTO 00000KT 2SM -RA OVC005 M01/M01 A3008 RMK AO2 T10071011
Observed Flight Rules
Nov-15 @ 12:35 UTC (20 minutes ago) Instrument Flight Rules
Visibility Clouds Conditions
2 miles
  • Overcast at 500' AGL
  • Light Rain
Temperatures Readings
Current -1°C / 30°F
Dewpoint -1°C / 30°F
Humidity 100%
Altimeter 30.08" Hg
Pressure 1019 hPa
Elevation 131
METAR KAJG 151235Z AUTO 00000KT 2SM -RA OVC005 M01/M01 A3008 RMK AO2 T10071011
Observed Flight Rules
Nov-15 @ 12:35 UTC
(20 minutes ago)
IFR
Clouds
  • Overcast at 500' AGL
Conditions
  • Light Rain
Temperature Dewpoint
-1°C / 30°F -1°C / 30°F
Humidity Altimeter Pressure
100% 30.08" Hg 1019 hPa